Dati Storici

Data ora Umidita' aria (%) Temperatura aria (°C) Rad globale (W/m²) Gonioanemometro (°) Tacoanemometro (m/s) Pioggia (mm)
03-07-2020 09:30 65.9 % 25.157 -84.885 2.261 0 0
03-07-2020 09:20 65.6 % 24.596 -85.021 4.106 0 0
03-07-2020 09:10 66.4 % 24.303 -84.311 2.406 0 0
03-07-2020 09:00 66.4 % 25.038 -86.258 1.32 0 0
03-07-2020 08:50 67.1 % 24.093 -85.991 1.473 0 0
03-07-2020 08:40 68.9 % 24.042 -32.641 -0.034 0 0
03-07-2020 08:30 65.8 % 23.626 -86.249 4.114 0 0
03-07-2020 08:20 68.9 % 23.869 -72.313 1.006 0 0
03-07-2020 08:10 67 % 23.661 -85.344 4.569 0 0
03-07-2020 08:00 67.8 % 24.187 -86.222 1.573 0 0
03-07-2020 07:50 67 % 23.899 -79.931 4.384 0 0
03-07-2020 07:40 68.3 % 23.705 -83.944 4.534 0 0
03-07-2020 07:30 69.7 % 23.301 -86.168 3.8 0 0
03-07-2020 07:20 72.5 % 23.671 -86.069 2.17 0 0
03-07-2020 07:10 72.9 % 23.242 -67.458 1.241 0 0
03-07-2020 07:00 73.6 % 22.936 -82.666 2.41 0 0
03-07-2020 06:50 79.7 % 23.182 -77.468 0.264 0 0
03-07-2020 06:40 81 % 22.371 -68.706 -0.027 0 0
03-07-2020 06:30 83.6 % 22.527 -72.054 -0.025 0 0
03-07-2020 06:20 85.7 % 21.928 19.781 1.231 0 0

I dati sono presentati in modo automatico a scopo informativo. In seguito a verifica i dati possono subire modifiche o essere invalidati e non riportati negli archivi definitivi.